createdAt,value
2023-05-14T00:00:11.776Z,78.70
2023-05-14T00:03:13.342Z,77.84
2023-05-14T00:06:15.256Z,78.05
2023-05-14T00:09:16.968Z,77.61
2023-05-14T00:12:18.377Z,77.35
2023-05-14T00:15:19.799Z,78.76
2023-05-14T00:18:21.182Z,82.17
2023-05-14T00:21:22.709Z,83.91
2023-05-14T00:24:24.673Z,84.90
2023-05-14T00:27:26.080Z,84.39
2023-05-14T00:30:27.539Z,83.43
2023-05-14T00:33:28.943Z,84.77
2023-05-14T00:36:31.311Z,85.54
2023-05-14T00:39:32.823Z,85.73
2023-05-14T00:42:34.703Z,84.84
2023-05-14T00:45:36.305Z,84.66
2023-05-14T00:48:38.022Z,84.00
2023-05-14T00:51:41.323Z,83.32
2023-05-14T00:54:42.834Z,83.06
2023-05-14T00:57:44.652Z,84.17
2023-05-14T01:00:46.081Z,84.72
2023-05-14T01:03:48.974Z,84.53
2023-05-14T01:07:12.066Z,81.25
2023-05-14T01:10:21.754Z,80.51
2023-05-14T01:13:33.630Z,80.38
2023-05-14T01:16:37.301Z,80.62
2023-05-14T01:19:44.214Z,80.72
2023-05-14T01:22:46.318Z,80.10
2023-05-14T01:25:47.765Z,81.81
2023-05-14T01:28:51.624Z,82.79
2023-05-14T01:31:57.220Z,83.50
2023-05-14T01:35:00.361Z,83.60
2023-05-14T01:38:06.656Z,82.92
2023-05-14T01:41:08.306Z,82.90
2023-05-14T01:44:10.478Z,81.85
2023-05-14T01:47:12.270Z,82.17
2023-05-14T01:50:13.692Z,81.64
2023-05-14T01:53:15.229Z,80.74
2023-05-14T01:56:18.324Z,81.10
2023-05-14T01:59:19.741Z,81.08
2023-05-14T02:02:21.637Z,81.61
2023-05-14T02:05:23.051Z,81.92
2023-05-14T02:08:24.453Z,82.88
2023-05-14T02:11:26.218Z,83.02
2023-05-14T02:14:27.610Z,83.15
2023-05-14T02:17:29.236Z,84.56
2023-05-14T02:20:30.633Z,84.96
2023-05-14T02:23:41.001Z,85.20
2023-05-14T02:26:43.333Z,84.50
2023-05-14T02:29:44.990Z,84.80
2023-05-14T02:32:46.430Z,84.43
2023-05-14T02:35:47.881Z,84.18
2023-05-14T02:38:49.288Z,84.65
2023-05-14T02:41:50.685Z,84.53
2023-05-14T02:44:52.421Z,85.40
2023-05-14T02:47:53.852Z,85.76
2023-05-14T02:50:55.289Z,86.21
2023-05-14T02:53:56.835Z,86.47
2023-05-14T02:56:58.224Z,87.52
2023-05-14T02:59:59.679Z,88.68
2023-05-14T03:03:01.618Z,88.37
2023-05-14T03:06:04.296Z,87.22
2023-05-14T03:09:05.724Z,88.73
2023-05-14T03:12:07.732Z,88.48
2023-05-14T03:15:09.644Z,86.96
2023-05-14T03:18:11.014Z,86.06
2023-05-14T03:21:12.471Z,85.33
2023-05-14T03:24:13.843Z,86.07
2023-05-14T03:27:15.270Z,86.87
2023-05-14T03:30:16.702Z,87.07
2023-05-14T03:33:18.093Z,88.68
2023-05-14T03:36:19.513Z,90.36
2023-05-14T03:39:22.399Z,90.43
2023-05-14T03:42:23.879Z,89.28
2023-05-14T03:45:26.803Z,88.40
2023-05-14T03:48:28.407Z,88.80
2023-05-14T03:51:30.074Z,90.14
2023-05-14T03:54:31.624Z,90.59
2023-05-14T03:57:34.610Z,91.33
2023-05-14T04:00:37.132Z,91.56
2023-05-14T04:03:38.741Z,93.79
2023-05-14T04:06:40.334Z,94.50
2023-05-14T04:09:41.729Z,96.21
2023-05-14T04:12:43.269Z,92.87
2023-05-14T04:15:45.410Z,96.61
2023-05-14T04:18:48.168Z,96.03
2023-05-14T04:21:49.926Z,94.80
2023-05-14T04:24:51.961Z,94.48
2023-05-14T04:27:53.460Z,96.58
2023-05-14T04:30:55.346Z,96.20
2023-05-14T04:33:56.871Z,96.58
2023-05-14T04:36:58.252Z,97.56
2023-05-14T04:40:00.855Z,97.97
2023-05-14T04:43:02.537Z,96.49
2023-05-14T04:46:03.983Z,97.83
2023-05-14T04:49:05.430Z,98.28
2023-05-14T04:52:07.047Z,94.36
2023-05-14T04:55:09.025Z,96.97
2023-05-14T04:58:10.413Z,95.05
2023-05-14T05:01:12.127Z,98.55
2023-05-14T05:04:13.601Z,95.47
2023-05-14T05:07:15.049Z,90.63
2023-05-14T05:10:16.516Z,89.18
2023-05-14T05:13:17.912Z,89.28
2023-05-14T05:16:19.304Z,89.16
2023-05-14T05:19:26.440Z,88.46
2023-05-14T05:22:33.857Z,85.93
2023-05-14T05:25:35.236Z,87.61
2023-05-14T05:28:36.600Z,87.37
2023-05-14T05:31:38.130Z,87.23
2023-05-14T05:34:39.558Z,86.37
2023-05-14T05:37:41.407Z,86.60
2023-05-14T05:40:42.888Z,86.33
2023-05-14T05:43:44.325Z,85.20
2023-05-14T05:46:45.843Z,86.75
2023-05-14T05:49:47.290Z,82.95
2023-05-14T05:52:48.697Z,81.59
2023-05-14T05:55:51.635Z,83.80
2023-05-14T05:58:53.125Z,82.09
2023-05-14T06:01:54.605Z,80.99
2023-05-14T06:04:56.038Z,83.88
2023-05-14T06:07:57.500Z,83.23
2023-05-14T06:10:59.143Z,82.47
2023-05-14T06:14:00.620Z,82.37
2023-05-14T06:17:07.478Z,79.88
2023-05-14T06:20:09.861Z,80.40
2023-05-14T06:23:12.156Z,81.03
2023-05-14T06:26:13.610Z,80.96
2023-05-14T06:29:14.970Z,81.25
2023-05-14T06:32:16.818Z,81.13
2023-05-14T06:35:19.103Z,79.17
2023-05-14T06:38:20.596Z,78.63
2023-05-14T06:41:22.584Z,86.61
2023-05-14T06:44:23.981Z,86.08
2023-05-14T06:47:25.470Z,82.84
2023-05-14T06:50:26.878Z,80.25
2023-05-14T06:53:28.270Z,77.35
2023-05-14T06:56:29.637Z,79.75
2023-05-14T06:59:31.099Z,74.79
2023-05-14T07:02:32.549Z,72.42
2023-05-14T07:05:33.984Z,73.73
2023-05-14T07:08:35.996Z,72.62
2023-05-14T07:11:37.460Z,71.71
2023-05-14T07:14:38.851Z,70.37
2023-05-14T07:17:40.420Z,70.16
2023-05-14T07:20:41.852Z,72.12
2023-05-14T07:23:43.282Z,68.08
2023-05-14T07:26:44.713Z,67.65
2023-05-14T07:29:46.117Z,67.87
2023-05-14T07:32:47.586Z,67.94
2023-05-14T07:35:49.166Z,72.93
2023-05-14T07:38:50.629Z,73.76
2023-05-14T07:41:52.039Z,74.17
2023-05-14T07:44:53.510Z,73.61
2023-05-14T07:47:55.007Z,74.71
2023-05-14T07:50:56.487Z,75.51
2023-05-14T07:53:57.872Z,75.49
2023-05-14T07:56:59.246Z,75.98
2023-05-14T08:00:00.650Z,76.29
2023-05-14T08:03:02.304Z,76.59
2023-05-14T08:06:04.362Z,72.61
2023-05-14T08:09:05.814Z,68.74
2023-05-14T08:12:08.245Z,70.37
2023-05-14T08:15:10.135Z,67.54
2023-05-14T08:18:11.593Z,68.26
2023-05-14T08:21:13.110Z,69.37
2023-05-14T08:24:14.971Z,70.36
2023-05-14T08:27:18.970Z,67.79
2023-05-14T08:30:21.324Z,68.98
2023-05-14T08:33:23.283Z,71.79
2023-05-14T08:36:24.743Z,67.03
2023-05-14T08:39:26.154Z,68.44
2023-05-14T08:42:28.736Z,68.11
2023-05-14T08:45:33.954Z,68.32
2023-05-14T08:48:36.040Z,68.20
2023-05-14T08:51:38.349Z,68.74
2023-05-14T08:54:40.433Z,68.69
2023-05-14T08:57:41.968Z,65.92
2023-05-14T09:00:43.427Z,63.69
2023-05-14T09:03:45.741Z,62.13
2023-05-14T09:06:49.884Z,63.15
2023-05-14T09:09:52.602Z,62.55
2023-05-14T09:12:54.266Z,63.92
2023-05-14T09:15:57.228Z,60.30
2023-05-14T09:18:59.851Z,60.34
2023-05-14T09:22:01.351Z,61.75
2023-05-14T09:25:09.232Z,58.86
2023-05-14T09:28:10.745Z,59.11
2023-05-14T09:31:12.309Z,60.21
2023-05-14T09:34:24.317Z,59.45
2023-05-14T09:37:26.253Z,60.23
2023-05-14T09:40:27.883Z,59.66
2023-05-14T09:43:29.578Z,59.91
2023-05-14T09:46:31.831Z,61.66
2023-05-14T09:49:33.728Z,63.35
2023-05-14T09:52:35.504Z,65.94
2023-05-14T09:55:37.899Z,63.23
2023-05-14T09:58:39.482Z,63.64
2023-05-14T10:01:43.612Z,61.59
2023-05-14T10:04:45.266Z,61.90
2023-05-14T10:07:49.698Z,62.79
2023-05-14T10:10:52.202Z,62.13
2023-05-14T10:14:18.171Z,62.06
2023-05-14T10:17:21.700Z,62.57
2023-05-14T10:20:25.059Z,63.89
2023-05-14T10:23:27.275Z,62.94
2023-05-14T10:26:28.814Z,61.21
2023-05-14T10:29:37.662Z,63.26
2023-05-14T10:32:41.719Z,63.73
2023-05-14T10:36:03.127Z,63.51
2023-05-14T10:39:04.982Z,64.48
2023-05-14T10:42:08.102Z,64.28
2023-05-14T10:45:18.667Z,64.16
2023-05-14T10:48:20.557Z,64.46
2023-05-14T10:51:23.369Z,64.79
2023-05-14T10:54:27.822Z,64.59
2023-05-14T10:57:32.173Z,65.58
2023-05-14T11:00:37.732Z,65.15
2023-05-14T11:03:44.316Z,64.07
2023-05-14T11:06:47.324Z,63.05
2023-05-14T11:09:51.056Z,60.89
2023-05-14T11:12:52.765Z,60.23
2023-05-14T11:15:55.649Z,61.18
2023-05-14T11:19:04.654Z,60.48
2023-05-14T11:22:07.842Z,60.03
2023-05-14T11:25:10.920Z,60.38
2023-05-14T11:28:12.308Z,59.75
2023-05-14T11:31:14.086Z,59.82
2023-05-14T11:34:15.549Z,58.78
2023-05-14T11:37:17.865Z,59.33
2023-05-14T11:40:19.871Z,59.10
2023-05-14T11:43:23.766Z,58.74
2023-05-14T11:46:26.079Z,57.28
2023-05-14T11:49:31.009Z,56.46
2023-05-14T11:52:37.847Z,57.54
2023-05-14T11:55:39.799Z,58.10
2023-05-14T11:58:47.970Z,56.35
2023-05-14T12:01:50.747Z,55.63
2023-05-14T12:04:53.459Z,55.92
2023-05-14T12:07:56.086Z,54.40
2023-05-14T12:11:01.262Z,55.51
2023-05-14T12:14:11.118Z,52.67
2023-05-14T12:17:20.779Z,54.36
2023-05-14T12:20:23.468Z,54.72
2023-05-14T12:23:29.812Z,55.55
2023-05-14T12:26:34.648Z,55.87
2023-05-14T12:29:38.978Z,56.48
2023-05-14T12:32:41.297Z,56.95
2023-05-14T12:35:42.974Z,58.08
2023-05-14T12:38:44.468Z,57.90
2023-05-14T12:41:45.842Z,57.60
2023-05-14T12:44:47.207Z,56.54
2023-05-14T12:47:48.635Z,55.98
2023-05-14T12:50:50.172Z,57.41
2023-05-14T12:53:53.898Z,57.66
2023-05-14T12:56:55.301Z,57.23
2023-05-14T12:59:57.574Z,56.84
2023-05-14T13:02:59.003Z,57.06
2023-05-14T13:06:01.239Z,55.95
2023-05-14T13:09:03.216Z,55.58
2023-05-14T13:12:05.111Z,55.45
2023-05-14T13:15:07.102Z,56.57
2023-05-14T13:18:08.585Z,55.37
2023-05-14T13:21:12.566Z,55.36
2023-05-14T13:24:13.971Z,56.40
2023-05-14T13:27:16.060Z,55.27
2023-05-14T13:30:18.359Z,55.01
2023-05-14T13:33:19.845Z,54.06
2023-05-14T13:36:21.303Z,53.60
2023-05-14T13:39:26.797Z,54.63
2023-05-14T13:42:28.291Z,54.97
2023-05-14T13:45:29.998Z,53.72
2023-05-14T13:48:31.672Z,53.54
2023-05-14T13:51:34.939Z,53.52
2023-05-14T13:54:36.994Z,54.70
2023-05-14T13:57:39.639Z,53.44
2023-05-14T14:00:42.616Z,53.62
2023-05-14T14:03:43.987Z,53.35
2023-05-14T14:06:45.814Z,53.89
2023-05-14T14:09:47.262Z,55.18
2023-05-14T14:12:49.051Z,54.40
2023-05-14T14:15:51.136Z,53.83
2023-05-14T14:18:52.791Z,54.85
2023-05-14T14:21:54.300Z,55.18
2023-05-14T14:24:55.760Z,54.14
2023-05-14T14:27:57.165Z,53.81
2023-05-14T14:30:58.641Z,53.51
2023-05-14T14:34:00.155Z,52.34
2023-05-14T14:37:02.534Z,52.60
2023-05-14T14:40:07.136Z,53.12
2023-05-14T14:43:08.677Z,54.39
2023-05-14T14:46:10.933Z,54.73
2023-05-14T14:49:12.390Z,52.92
2023-05-14T14:52:13.839Z,50.65
2023-05-14T14:55:15.348Z,49.81
2023-05-14T14:58:18.636Z,47.82
2023-05-14T15:01:21.221Z,48.08
2023-05-14T15:04:22.685Z,48.28
2023-05-14T15:07:24.217Z,46.65
2023-05-14T15:10:28.806Z,46.04
2023-05-14T15:13:31.685Z,44.86
2023-05-14T15:16:33.117Z,44.96
2023-05-14T15:19:35.071Z,44.98
2023-05-14T15:22:36.996Z,44.77
2023-05-14T15:25:38.581Z,44.73
2023-05-14T15:28:39.962Z,44.51
2023-05-14T15:31:41.976Z,44.71
2023-05-14T15:34:43.444Z,44.74
2023-05-14T15:37:45.460Z,45.10
2023-05-14T15:40:46.993Z,45.14
2023-05-14T15:43:48.475Z,46.20
2023-05-14T15:46:50.017Z,44.96
2023-05-14T15:49:51.535Z,44.12
2023-05-14T15:52:53.536Z,44.98
2023-05-14T15:55:56.463Z,45.93
2023-05-14T15:58:57.883Z,46.98
2023-05-14T16:01:59.926Z,47.46
2023-05-14T16:05:01.377Z,48.67
2023-05-14T16:08:03.609Z,48.11
2023-05-14T16:11:06.199Z,48.26
2023-05-14T16:14:07.617Z,47.91
2023-05-14T16:17:09.328Z,46.92
2023-05-14T16:20:11.600Z,46.42
2023-05-14T16:23:12.986Z,46.85
2023-05-14T16:26:14.420Z,46.69
2023-05-14T16:29:15.816Z,46.87
2023-05-14T16:32:18.015Z,46.26
2023-05-14T16:35:19.556Z,47.26
2023-05-14T16:38:21.027Z,46.12
2023-05-14T16:41:22.434Z,47.59
2023-05-14T16:44:23.818Z,47.30
2023-05-14T16:47:27.088Z,46.43
2023-05-14T16:50:28.728Z,46.99
2023-05-14T16:53:30.232Z,47.46
2023-05-14T16:56:32.320Z,48.26
2023-05-14T16:59:33.699Z,47.76
2023-05-14T17:02:35.146Z,48.15
2023-05-14T17:05:37.647Z,48.62
2023-05-14T17:08:39.022Z,49.53
2023-05-14T17:11:40.414Z,49.48
2023-05-14T17:14:41.841Z,49.66
2023-05-14T17:17:43.676Z,49.76
2023-05-14T17:20:46.251Z,49.91
2023-05-14T17:23:47.938Z,50.26
2023-05-14T17:26:49.481Z,50.57
2023-05-14T17:29:53.466Z,49.92
2023-05-14T17:32:54.996Z,50.31
2023-05-14T17:35:56.435Z,49.88
2023-05-14T17:38:57.882Z,50.29
2023-05-14T17:41:59.277Z,49.59
2023-05-14T17:45:01.174Z,50.08
2023-05-14T17:48:02.625Z,50.12
2023-05-14T17:51:04.977Z,49.45
2023-05-14T17:54:06.374Z,48.89
2023-05-14T17:57:08.142Z,48.88
2023-05-14T18:00:10.028Z,48.97
2023-05-14T18:03:14.959Z,49.08
2023-05-14T18:06:16.837Z,49.09
2023-05-14T18:09:18.335Z,50.08
2023-05-14T18:12:20.044Z,49.28
2023-05-14T18:15:21.598Z,49.82
2023-05-14T18:18:23.911Z,50.09
2023-05-14T18:21:26.406Z,49.64
2023-05-14T18:24:28.116Z,50.10
2023-05-14T18:27:30.222Z,50.09
2023-05-14T18:30:32.220Z,50.71
2023-05-14T18:33:33.612Z,50.93
2023-05-14T18:36:34.998Z,50.88
2023-05-14T18:39:36.369Z,51.24
2023-05-14T18:42:37.872Z,51.91
2023-05-14T18:45:40.020Z,52.19
2023-05-14T18:48:41.614Z,52.74
2023-05-14T18:51:43.008Z,53.62
2023-05-14T18:54:44.389Z,53.97
2023-05-14T18:57:46.082Z,55.65
2023-05-14T19:00:47.481Z,55.35
2023-05-14T19:03:48.942Z,56.54
2023-05-14T19:06:51.062Z,58.23
2023-05-14T19:09:52.933Z,58.13
2023-05-14T19:12:54.360Z,59.96
2023-05-14T19:15:56.129Z,61.26
2023-05-14T19:18:57.754Z,60.14
2023-05-14T19:21:59.286Z,58.54
2023-05-14T19:25:03.224Z,58.46
2023-05-14T19:28:05.989Z,57.71
2023-05-14T19:31:08.266Z,58.07
2023-05-14T19:34:10.010Z,59.05
2023-05-14T19:37:11.639Z,58.86
2023-05-14T19:40:13.068Z,58.66
2023-05-14T19:43:14.518Z,58.70
2023-05-14T19:46:16.440Z,59.18
2023-05-14T19:49:17.820Z,59.82
2023-05-14T19:52:20.192Z,59.81
2023-05-14T19:55:21.557Z,58.26
2023-05-14T19:58:23.548Z,57.63
2023-05-14T20:01:26.576Z,57.95
2023-05-14T20:04:28.098Z,58.17
2023-05-14T20:07:32.038Z,58.20
2023-05-14T20:10:33.502Z,57.05
2023-05-14T20:13:36.383Z,57.60
2023-05-14T20:16:37.844Z,58.36
2023-05-14T20:19:39.246Z,58.02
2023-05-14T20:22:42.690Z,58.43
2023-05-14T20:25:44.199Z,58.16
2023-05-14T20:28:45.654Z,58.41
2023-05-14T20:31:47.015Z,60.50
2023-05-14T20:34:48.377Z,61.69
2023-05-14T20:37:49.780Z,62.86
2023-05-14T20:40:51.134Z,63.20
2023-05-14T20:43:52.526Z,62.88
2023-05-14T20:46:54.020Z,63.07
2023-05-14T20:49:55.559Z,63.65
2023-05-14T20:52:56.926Z,63.87
2023-05-14T20:55:59.001Z,63.89
2023-05-14T20:59:00.421Z,63.87
2023-05-14T21:02:01.994Z,64.28
2023-05-14T21:05:03.750Z,65.59
2023-05-14T21:08:05.398Z,66.31
2023-05-14T21:11:06.782Z,66.77
2023-05-14T21:14:08.158Z,67.58
2023-05-14T21:17:10.593Z,68.38
2023-05-14T21:20:13.478Z,68.49
2023-05-14T21:23:14.987Z,68.58
2023-05-14T21:26:16.405Z,68.01
2023-05-14T21:29:17.768Z,67.95
2023-05-14T21:32:20.091Z,66.57
2023-05-14T21:35:21.521Z,67.53
2023-05-14T21:38:23.117Z,70.00
2023-05-14T21:41:24.571Z,71.69
2023-05-14T21:44:25.941Z,71.08
2023-05-14T21:47:27.562Z,71.96
2023-05-14T21:50:28.977Z,71.14
2023-05-14T21:53:30.432Z,70.77
2023-05-14T21:56:31.882Z,71.85
2023-05-14T21:59:33.774Z,72.82
2023-05-14T22:02:35.217Z,73.14
2023-05-14T22:05:36.656Z,73.33
2023-05-14T22:08:38.032Z,73.11
2023-05-14T22:11:39.406Z,74.11
2023-05-14T22:14:40.861Z,73.18
2023-05-14T22:17:42.391Z,75.38
2023-05-14T22:20:44.108Z,76.14
2023-05-14T22:23:45.487Z,74.60
2023-05-14T22:26:46.865Z,75.70
2023-05-14T22:29:48.239Z,77.29
2023-05-14T22:32:49.660Z,79.08
2023-05-14T22:35:51.295Z,80.17
2023-05-14T22:38:52.653Z,81.15
2023-05-14T22:41:55.047Z,82.09
2023-05-14T22:44:56.633Z,83.94
2023-05-14T22:47:58.345Z,85.15
2023-05-14T22:50:59.763Z,84.45
2023-05-14T22:54:01.125Z,85.85
2023-05-14T22:57:03.445Z,86.47
2023-05-14T23:00:06.935Z,87.74
2023-05-14T23:03:08.410Z,89.68
2023-05-14T23:06:10.029Z,90.44
2023-05-14T23:09:11.413Z,90.93
2023-05-14T23:12:12.789Z,89.65
2023-05-14T23:15:14.306Z,89.98
2023-05-14T23:18:15.782Z,90.93
2023-05-14T23:21:17.219Z,91.80
2023-05-14T23:24:18.590Z,90.48
2023-05-14T23:27:19.982Z,90.66
2023-05-14T23:30:21.380Z,89.27
2023-05-14T23:33:22.761Z,90.08
2023-05-14T23:36:24.283Z,91.92
2023-05-14T23:39:25.847Z,92.54
2023-05-14T23:42:27.212Z,94.64
2023-05-14T23:45:29.055Z,94.23
2023-05-14T23:48:30.970Z,95.45
2023-05-14T23:51:32.331Z,96.29
2023-05-14T23:54:33.815Z,97.59
2023-05-14T23:57:35.604Z,98.57
